Time;durP1;ratioP1;P1;durP2;ratioP2;P2;SDS_P1;SDS_P2;PMS_P1;PMS_P2;Temp;Humidity;BMP_temperature;BMP_pressure;BME280_temperature;BME280_humidity;BME280_pressure;Samples;Min_cycle;Max_cycle;Signal;HPM_P1;HPM_P2
2023/06/02 00:01:43;;;;;;;;;;;;;;;;;;5049100;28;19913;-39
2023/06/02 05:11:26;;;;;;;;;;;;;;;;;;5054438;28;19923;-39
2023/06/02 05:13:55;;;;;;;;;;;;;;;;;;5047291;28;20287;-48
2023/06/02 05:16:23;;;;;;;;;;;;;;;;;;5050660;28;19917;-44
2023/06/02 05:18:49;;;;;;;;;;;;;;;;;;5050658;28;19991;-46
2023/06/02 05:21:15;;;;;;;;;;;;;;;;;;5049342;28;20034;-45
2023/06/02 05:23:41;;;;;;;;;;;;;;;;;;5048764;28;19917;-44
2023/06/02 05:26:07;;;;;;;;;;;;;;;;;;5050917;28;19931;-46
2023/06/02 05:28:33;;;;;;;;;;;;;;;;;;5050521;28;19987;-46
2023/06/02 05:30:59;;;;;;;;;;;;;;;;;;5049561;28;19912;-46
2023/06/02 05:33:25;;;;;;;;;;;;;;;;;;5049764;28;20048;-46
2023/06/02 05:35:51;;;;;;;;;;;;;;;;;;5049895;28;19913;-47
2023/06/02 05:38:17;;;;;;;;;;;;;;;;;;5036150;28;20015;-49
2023/06/02 05:40:43;;;;;;;;;;;;;;;;;;5033840;28;19999;-46
2023/06/02 05:43:09;;;;;;;;;;;;;;;;;;5029753;28;20210;-44
2023/06/02 05:45:35;;;;;;;;;;;;;;;;;;5043657;28;19921;-48
2023/06/02 05:48:01;;;;;;;;;;;;;;;;;;5049786;28;19930;-45
2023/06/02 05:50:27;;;;;;;;;;;;;;;;;;5049871;28;20060;-39
2023/06/02 05:52:53;;;;;;;;;;;;;;;;;;5048989;28;19916;-45
2023/06/02 05:55:20;;;;;;;;;;;;;;;;;;5045245;28;19913;-38
2023/06/02 05:57:46;;;;;;;;;;;;;;;;;;5046488;28;20614;-38
2023/06/02 06:00:12;;;;;;;;;;;;;;;;;;5047164;28;19916;-39
2023/06/02 06:02:37;;;;;;;;;;;;;;;;;;5032149;28;19913;-38
2023/06/02 06:05:03;;;;;;;;;;;;;;;;;;5046862;28;20059;-38
2023/06/02 06:07:30;;;;;;;;;;;;;;;;;;5047277;28;19921;-38
2023/06/02 06:09:57;;;;;;;;;;;;;;;;;;5048480;28;19980;-38
2023/06/02 06:12:23;;;;;;;;;;;;;;;;;;5051726;28;20395;-39
2023/06/02 06:14:49;;;;;;;;;;;;;;;;;;5069446;28;19922;-39
2023/06/02 06:17:15;;;;;;;;;;;;;;;;;;5066687;28;19986;-38
2023/06/02 06:19:41;;;;;;;;;;;;;;;;;;5068924;28;19913;-38
2023/06/02 06:22:07;;;;;;;;;;;;;;;;;;5069126;28;19943;-41
2023/06/02 06:24:33;;;;;;;;;;;;;;;;;;5075902;28;19952;-41
2023/06/02 06:26:59;;;;;;;;;;;;;;;;;;5065373;28;19963;-39
2023/06/02 06:29:26;;;;;;;;;;;;;;;;;;5068708;28;20379;-39
2023/06/02 06:31:52;;;;;;;;;;;;;;;;;;5067581;28;19916;-38
2023/06/02 06:34:19;;;;;;;;;;;;;;;;;;5058477;28;19937;-39
2023/06/02 06:36:45;;;;;;;;;;;;;;;;;;5065914;28;20451;-39
2023/06/02 06:39:11;;;;;;;;;;;;;;;;;;5076595;28;20003;-39
2023/06/02 06:41:40;;;;;;;;;;;;;;;;;;5067556;28;19939;-39
2023/06/02 06:44:06;;;;;;;;;;;;;;;;;;5065737;28;19916;-39
2023/06/02 06:46:32;;;;;;;;;;;;;;;;;;5065307;28;20011;-39
2023/06/02 06:48:58;;;;;;;;;;;;;;;;;;5066441;28;19916;-39
2023/06/02 06:51:24;;;;;;;;;;;;;;;;;;5053788;28;19970;-38
2023/06/02 06:53:51;;;;;;;;;;;;;;;;;;5065931;28;19940;-38
2023/06/02 06:56:17;;;;;;;;;;;;;;;;;;5060201;28;19920;-38
2023/06/02 06:58:43;;;;;;;;;;;;;;;;;;5066264;28;19919;-39
2023/06/02 07:01:10;;;;;;;;;;;;;;;;;;5060490;28;19924;-39
2023/06/02 07:03:36;;;;;;;;;;;;;;;;;;5079833;28;19958;-39
2023/06/02 07:06:02;;;;;;;;;;;;;;;;;;5086861;28;19916;-39
2023/06/02 07:08:29;;;;;;;;;;;;;;;;;;5067402;28;20398;-39
2023/06/02 07:10:55;;;;;;;;;;;;;;;;;;5063612;28;19958;-39
2023/06/02 07:13:21;;;;;;;;;;;;;;;;;;5067026;28;20337;-39
2023/06/02 07:15:48;;;;;;;;;;;;;;;;;;5057594;28;19920;-39
2023/06/02 07:18:14;;;;;;;;;;;;;;;;;;5047442;28;20395;-38
2023/06/02 07:20:40;;;;;;;;;;;;;;;;;;5046700;28;19909;-39
2023/06/02 07:23:06;;;;;;;;;;;;;;;;;;5046924;28;19951;-39
2023/06/02 07:25:32;;;;;;;;;;;;;;;;;;5046504;28;20026;-39
2023/06/02 07:27:58;;;;;;;;;;;;;;;;;;5046396;28;19917;-39
2023/06/02 07:30:24;;;;;;;;;;;;;;;;;;5046582;28;19979;-45
2023/06/02 07:32:50;;;;;;;;;;;;;;;;;;5046882;28;19943;-45
2023/06/02 07:35:16;;;;;;;;;;;;;;;;;;5047161;28;19908;-46
2023/06/02 07:37:42;;;;;;;;;;;;;;;;;;5047236;28;19931;-45
2023/06/02 07:40:08;;;;;;;;;;;;;;;;;;5046547;28;19909;-45
2023/06/02 07:42:34;;;;;;;;;;;;;;;;;;5049518;28;19913;-46
2023/06/02 07:44:59;;;;;;;;;;;;;;;;;;5056897;28;19935;-45
2023/06/02 07:47:25;;;;;;;;;;;;;;;;;;5045582;28;19916;-45
2023/06/02 07:49:51;;;;;;;;;;;;;;;;;;5060391;28;19966;-45
2023/06/02 07:52:18;;;;;;;;;;;;;;;;;;5065117;28;19912;-46
2023/06/02 07:54:44;;;;;;;;;;;;;;;;;;5066086;28;20340;-45
2023/06/02 07:57:10;;;;;;;;;;;;;;;;;;5064891;28;20011;-46
2023/06/02 07:59:37;;;;;;;;;;;;;;;;;;5068498;28;19909;-47
2023/06/02 08:02:04;;;;;;;;;;;;;;;;;;5082494;28;20248;-46
2023/06/02 08:04:31;;;;;;;;;;;;;;;;;;5085830;28;19925;-46
2023/06/02 08:06:57;;;;;;;;;;;;;;;;;;5051078;28;19919;-45
2023/06/02 08:09:23;;;;;;;;;;;;;;;;;;5067312;28;20307;-44
2023/06/02 08:11:49;;;;;;;;;;;;;;;;;;5067193;28;19919;-47
2023/06/02 08:14:16;;;;;;;;;;;;;;;;;;5052871;28;19960;-44
2023/06/02 08:16:43;;;;;;;;;;;;;;;;;;5052730;28;20270;-45
2023/06/02 08:19:10;;;;;;;;;;;;;;;;;;5067777;28;19908;-45
2023/06/02 08:21:36;;;;;;;;;;;;;;;;;;5049490;28;19999;-44
2023/06/02 08:24:02;;;;;;;;;;;;;;;;;;5055906;28;19950;-46
2023/06/02 08:26:29;;;;;;;;;;;;;;;;;;5068419;28;20110;-46
2023/06/02 08:28:57;;;;;;;;;;;;;;;;;;5070517;28;19970;-44
2023/06/02 08:31:24;;;;;;;;;;;;;;;;;;5067130;28;19931;-48
2023/06/02 08:33:52;;;;;;;;;;;;;;;;;;5075101;28;19916;-46
2023/06/02 08:36:19;;;;;;;;;;;;;;;;;;5087460;28;20410;-46
2023/06/02 08:38:45;;;;;;;;;;;;;;;;;;5075756;28;20459;-46
2023/06/02 08:41:14;;;;;;;;;;;;;;;;;;5066870;28;20007;-46
2023/06/02 08:43:40;;;;;;;;;;;;;;;;;;5067300;28;19913;-45
2023/06/02 08:46:06;;;;;;;;;;;;;;;;;;5066129;28;20007;-48
2023/06/02 08:48:33;;;;;;;;;;;;;;;;;;5065674;28;20015;-47
2023/06/02 08:51:01;;;;;;;;;;;;;;;;;;5066380;28;19955;-45
2023/06/02 08:53:27;;;;;;;;;;;;;;;;;;5066970;28;19943;-45
2023/06/02 08:55:53;;;;;;;;;;;;;;;;;;5066800;28;20394;-46
2023/06/02 08:58:19;;;;;;;;;;;;;;;;;;5066827;28;19912;-45
2023/06/02 09:00:45;;;;;;;;;;;;;;;;;;5066577;28;19920;-44
2023/06/02 09:03:11;;;;;;;;;;;;;;;;;;5066251;28;19908;-46
2023/06/02 09:05:37;;;;;;;;;;;;;;;;;;5066157;28;19913;-47
2023/06/02 09:08:03;;;;;;;;;;;;;;;;;;5060360;28;20391;-45
2023/06/02 09:10:29;;;;;;;;;;;;;;;;;;5061338;28;19912;-44
2023/06/02 09:12:55;;;;;;;;;;;;;;;;;;5065522;28;19946;-46
2023/06/02 09:15:22;;;;;;;;;;;;;;;;;;5065960;28;19920;-46
2023/06/02 09:17:48;;;;;;;;;;;;;;;;;;5086959;28;19916;-46
2023/06/02 09:20:14;;;;;;;;;;;;;;;;;;5059859;28;19971;-45
2023/06/02 09:22:40;;;;;;;;;;;;;;;;;;5074897;28;20350;-45
2023/06/02 09:25:06;;;;;;;;;;;;;;;;;;5066753;28;19908;-44
2023/06/02 09:27:32;;;;;;;;;;;;;;;;;;5065232;28;19918;-46
2023/06/02 09:29:58;;;;;;;;;;;;;;;;;;5065179;28;19912;-47
2023/06/02 09:32:24;;;;;;;;;;;;;;;;;;5065131;28;19913;-45
2023/06/02 09:34:50;;;;;;;;;;;;;;;;;;5066197;28;20427;-45
2023/06/02 09:37:16;;;;;;;;;;;;;;;;;;5062122;28;19927;-45
2023/06/02 09:39:43;;;;;;;;;;;;;;;;;;5065634;28;20018;-45
2023/06/02 09:42:09;;;;;;;;;;;;;;;;;;5066287;28;20295;-45
2023/06/02 09:44:35;;;;;;;;;;;;;;;;;;5065521;28;19912;-44
2023/06/02 09:47:03;;;;;;;;;;;;;;;;;;5065978;28;19909;-45
2023/06/02 09:49:29;;;;;;;;;;;;;;;;;;5068073;28;20345;-46
2023/06/02 09:51:56;;;;;;;;;;;;;;;;;;5074010;28;19912;-46
2023/06/02 09:54:22;;;;;;;;;;;;;;;;;;5066068;28;19951;-46
2023/06/02 09:56:47;;;;;;;;;;;;;;;;;;5065451;28;20460;-47
2023/06/02 09:59:13;;;;;;;;;;;;;;;;;;5064892;28;20314;-46
2023/06/02 10:01:41;;;;;;;;;;;;;;;;;;5062869;28;19916;-45
2023/06/02 10:04:07;;;;;;;;;;;;;;;;;;5055580;28;19958;-45
2023/06/02 10:06:33;;;;;;;;;;;;;;;;;;5065555;28;20395;-46
2023/06/02 10:08:59;;;;;;;;;;;;;;;;;;5048191;28;19913;-45
2023/06/02 10:11:25;;;;;;;;;;;;;;;;;;5045015;28;20328;-47
2023/06/02 10:13:51;;;;;;;;;;;;;;;;;;5060710;28;19920;-49
2023/06/02 10:16:17;;;;;;;;;;;;;;;;;;5064950;28;19962;-45
2023/06/02 10:18:43;;;;;;;;;;;;;;;;;;5059679;28;19913;-45
2023/06/02 10:21:09;;;;;;;;;;;;;;;;;;5045066;28;19913;-45
2023/06/02 10:23:35;;;;;;;;;;;;;;;;;;5044793;28;19924;-45
2023/06/02 10:26:01;;;;;;;;;;;;;;;;;;5058070;28;19917;-44
2023/06/02 10:28:28;;;;;;;;;;;;;;;;;;5046680;28;19959;-45
2023/06/02 10:30:54;;;;;;;;;;;;;;;;;;5045906;28;19939;-44
2023/06/02 10:33:20;;;;;;;;;;;;;;;;;;5046039;28;19912;-45
2023/06/02 10:35:45;;;;;;;;;;;;;;;;;;5047479;28;19959;-44
2023/06/02 10:38:11;;;;;;;;;;;;;;;;;;5056470;28;20039;-48
2023/06/02 10:40:38;;;;;;;;;;;;;;;;;;5053180;28;19920;-44
2023/06/02 10:43:04;;;;;;;;;;;;;;;;;;5065466;28;19956;-44
2023/06/02 10:45:30;;;;;;;;;;;;;;;;;;5066599;28;19913;-47
2023/06/02 10:47:56;;;;;;;;;;;;;;;;;;5067382;28;19927;-45
2023/06/02 10:50:22;;;;;;;;;;;;;;;;;;5047301;28;19908;-44
2023/06/02 10:52:48;;;;;;;;;;;;;;;;;;5059667;28;19917;-46
2023/06/02 10:55:14;;;;;;;;;;;;;;;;;;5064681;28;19923;-47
2023/06/02 10:57:40;;;;;;;;;;;;;;;;;;5051019;28;19928;-46
2023/06/02 11:00:09;;;;;;;;;;;;;;;;;;5065497;28;19912;-46
2023/06/02 11:02:35;;;;;;;;;;;;;;;;;;5069697;28;20319;-44
2023/06/02 11:05:01;;;;;;;;;;;;;;;;;;5067878;28;19920;-44
2023/06/02 11:07:28;;;;;;;;;;;;;;;;;;5064626;28;19920;-45
2023/06/02 11:09:54;;;;;;;;;;;;;;;;;;5066440;28;19958;-45
2023/06/02 11:12:20;;;;;;;;;;;;;;;;;;5057247;28;20000;-46
2023/06/02 11:14:47;;;;;;;;;;;;;;;;;;5057911;28;20007;-45
2023/06/02 11:17:13;;;;;;;;;;;;;;;;;;5049611;28;19920;-46
2023/06/02 11:19:39;;;;;;;;;;;;;;;;;;5063735;28;19963;-45
2023/06/02 11:22:05;;;;;;;;;;;;;;;;;;5062158;28;19920;-45
2023/06/02 11:24:31;;;;;;;;;;;;;;;;;;5059989;28;19919;-46
2023/06/02 11:26:57;;;;;;;;;;;;;;;;;;5048394;28;19909;-44
2023/06/02 11:29:23;;;;;;;;;;;;;;;;;;5058228;28;19912;-44
2023/06/02 11:31:49;;;;;;;;;;;;;;;;;;5062969;28;19935;-45
2023/06/02 11:34:15;;;;;;;;;;;;;;;;;;5066369;28;20007;-44
2023/06/02 11:36:42;;;;;;;;;;;;;;;;;;5072261;28;20303;-45
2023/06/02 11:39:09;;;;;;;;;;;;;;;;;;5071435;28;20295;-46
2023/06/02 11:41:35;;;;;;;;;;;;;;;;;;5070061;28;19943;-47
2023/06/02 11:44:00;;;;;;;;;;;;;;;;;;5071680;28;19909;-46
2023/06/02 11:46:26;;;;;;;;;;;;;;;;;;5063144;28;20003;-44
2023/06/02 11:48:52;;;;;;;;;;;;;;;;;;5051635;28;20010;-47
2023/06/02 11:51:18;;;;;;;;;;;;;;;;;;5059035;28;19916;-46
2023/06/02 11:53:45;;;;;;;;;;;;;;;;;;5068381;28;19912;-45
2023/06/02 11:56:11;;;;;;;;;;;;;;;;;;5064741;28;20330;-46
2023/06/02 11:58:37;;;;;;;;;;;;;;;;;;5065274;28;19920;-45
2023/06/02 12:01:04;;;;;;;;;;;;;;;;;;5049157;28;20379;-44
2023/06/02 12:03:29;;;;;;;;;;;;;;;;;;5059098;28;20382;-44
2023/06/02 12:05:57;;;;;;;;;;;;;;;;;;5062352;28;20011;-46
2023/06/02 12:08:24;;;;;;;;;;;;;;;;;;5064809;28;19924;-46
2023/06/02 12:10:50;;;;;;;;;;;;;;;;;;5055224;28;19995;-47
2023/06/02 12:13:17;;;;;;;;;;;;;;;;;;5066509;28;20011;-47
2023/06/02 12:15:43;;;;;;;;;;;;;;;;;;5068992;28;19978;-45
2023/06/02 12:18:09;;;;;;;;;;;;;;;;;;5068802;28;20568;-47
2023/06/02 12:20:36;;;;;;;;;;;;;;;;;;5068017;28;20002;-45
2023/06/02 12:23:02;;;;;;;;;;;;;;;;;;5068853;28;20303;-49
2023/06/02 12:25:29;;;;;;;;;;;;;;;;;;5054611;28;19913;-45
2023/06/02 15:56:35;;;;;;;;;;;;;;;;;;5063248;28;19986;-46
2023/06/02 15:59:02;;;;;;;;;;;;;;;;;;5064947;28;19916;-45
2023/06/02 16:01:29;;;;;;;;;;;;;;;;;;5067140;28;20007;-46
2023/06/02 16:03:55;;;;;;;;;;;;;;;;;;5068001;28;20011;-45
2023/06/02 16:06:22;;;;;;;;;;;;;;;;;;5068038;28;20066;-47
2023/06/02 16:08:48;;;;;;;;;;;;;;;;;;5065944;28;20004;-45
2023/06/02 16:11:14;;;;;;;;;;;;;;;;;;5049735;28;20000;-45
2023/06/02 16:13:42;;;;;;;;;;;;;;;;;;5067222;28;20217;-46
2023/06/02 16:16:08;;;;;;;;;;;;;;;;;;5067922;28;19908;-45
2023/06/02 16:18:34;;;;;;;;;;;;;;;;;;5068671;28;19916;-46
2023/06/02 16:21:00;;;;;;;;;;;;;;;;;;5071350;28;20528;-46
2023/06/02 16:23:26;;;;;;;;;;;;;;;;;;5069767;28;19923;-45
2023/06/02 16:25:52;;;;;;;;;;;;;;;;;;5072746;28;19962;-45
2023/06/02 16:28:18;;;;;;;;;;;;;;;;;;5072705;28;19947;-48
2023/06/02 16:30:44;;;;;;;;;;;;;;;;;;5072569;28;19931;-44
2023/06/02 16:33:10;;;;;;;;;;;;;;;;;;5068487;28;19955;-45
2023/06/02 16:35:36;;;;;;;;;;;;;;;;;;5071062;28;20673;-46
2023/06/02 16:38:02;;;;;;;;;;;;;;;;;;5063459;28;19986;-45
2023/06/02 16:40:29;;;;;;;;;;;;;;;;;;5065631;28;20006;-46
2023/06/02 16:42:55;;;;;;;;;;;;;;;;;;5062587;28;19913;-47
2023/06/02 16:45:21;;;;;;;;;;;;;;;;;;5070301;28;19921;-46
2023/06/02 16:47:46;;;;;;;;;;;;;;;;;;5066409;28;19916;-48
2023/06/02 16:50:12;;;;;;;;;;;;;;;;;;5058954;28;20015;-48
2023/06/02 16:52:38;;;;;;;;;;;;;;;;;;5060094;28;19936;-47
2023/06/02 16:55:04;;;;;;;;;;;;;;;;;;5064263;28;19933;-46
2023/06/02 16:57:30;;;;;;;;;;;;;;;;;;5069275;28;19952;-51
2023/06/02 16:59:56;;;;;;;;;;;;;;;;;;5063597;28;19956;-49
2023/06/02 17:02:22;;;;;;;;;;;;;;;;;;5051632;28;19912;-46
2023/06/02 17:04:48;;;;;;;;;;;;;;;;;;5058013;28;19916;-48
2023/06/02 17:07:14;;;;;;;;;;;;;;;;;;5065820;28;20256;-49
2023/06/02 17:09:41;;;;;;;;;;;;;;;;;;5066920;28;19917;-50
2023/06/02 17:12:07;;;;;;;;;;;;;;;;;;5070570;28;19999;-47
2023/06/02 17:14:33;;;;;;;;;;;;;;;;;;5069570;28;20414;-46
2023/06/02 17:17:00;;;;;;;;;;;;;;;;;;5043319;28;19961;-50
2023/06/02 17:19:26;;;;;;;;;;;;;;;;;;5088908;28;19919;-50
2023/06/02 17:21:52;;;;;;;;;;;;;;;;;;5084305;28;20445;-46
2023/06/02 17:24:18;;;;;;;;;;;;;;;;;;5044329;28;19999;-48
2023/06/02 17:26:44;;;;;;;;;;;;;;;;;;5068246;28;20027;-47
2023/06/02 17:29:10;;;;;;;;;;;;;;;;;;5066495;28;19916;-49
2023/06/02 17:31:36;;;;;;;;;;;;;;;;;;5067921;28;20570;-40
2023/06/02 17:34:02;;;;;;;;;;;;;;;;;;5068909;28;19916;-40
2023/06/02 17:36:28;;;;;;;;;;;;;;;;;;5066222;28;19912;-39
2023/06/02 17:38:54;;;;;;;;;;;;;;;;;;5049996;28;19920;-40
2023/06/02 17:41:21;;;;;;;;;;;;;;;;;;5066240;28;19913;-40
2023/06/02 17:43:49;;;;;;;;;;;;;;;;;;5060735;28;19916;-40
2023/06/02 17:46:16;;;;;;;;;;;;;;;;;;5062605;28;19913;-40
2023/06/02 17:48:44;;;;;;;;;;;;;;;;;;5051212;28;19917;-40
2023/06/02 17:51:10;;;;;;;;;;;;;;;;;;5055266;28;19917;-39
2023/06/02 17:53:36;;;;;;;;;;;;;;;;;;5063514;28;19917;-39
2023/06/02 17:56:03;;;;;;;;;;;;;;;;;;5058486;28;19996;-40
2023/06/02 17:58:30;;;;;;;;;;;;;;;;;;5064112;28;19927;-39
2023/06/02 18:00:56;;;;;;;;;;;;;;;;;;5064888;28;20643;-40
2023/06/02 18:03:22;;;;;;;;;;;;;;;;;;5057035;28;19969;-40
2023/06/02 18:05:48;;;;;;;;;;;;;;;;;;5056440;28;19974;-40
2023/06/02 18:08:14;;;;;;;;;;;;;;;;;;5052554;28;19913;-40
2023/06/02 18:10:41;;;;;;;;;;;;;;;;;;5047061;28;19974;-40
2023/06/02 18:13:07;;;;;;;;;;;;;;;;;;5054685;28;19989;-40
2023/06/02 18:15:36;;;;;;;;;;;;;;;;;;5058649;28;19916;-40
2023/06/02 18:18:02;;;;;;;;;;;;;;;;;;5045708;28;19927;-39
2023/06/02 18:20:28;;;;;;;;;;;;;;;;;;5059935;28;19912;-39
2023/06/02 18:22:55;;;;;;;;;;;;;;;;;;5035557;28;19935;-39
2023/06/02 18:25:20;;;;;;;;;;;;;;;;;;5053895;28;19916;-40
2023/06/02 18:27:46;;;;;;;;;;;;;;;;;;5040231;28;19916;-39
2023/06/02 18:30:13;;;;;;;;;;;;;;;;;;5034196;28;19970;-40
2023/06/02 18:32:39;;;;;;;;;;;;;;;;;;5048224;28;19919;-40
2023/06/02 18:35:05;;;;;;;;;;;;;;;;;;5056816;28;19955;-40
2023/06/02 18:37:31;;;;;;;;;;;;;;;;;;5084798;28;19960;-39
2023/06/02 18:39:57;;;;;;;;;;;;;;;;;;5058555;28;20148;-40
2023/06/02 18:42:23;;;;;;;;;;;;;;;;;;5046578;28;20359;-39
2023/06/02 18:44:49;;;;;;;;;;;;;;;;;;5048972;28;19919;-40
2023/06/02 18:47:16;;;;;;;;;;;;;;;;;;5062980;28;20148;-40
2023/06/02 18:49:41;;;;;;;;;;;;;;;;;;5061726;28;20028;-39
2023/06/02 18:52:07;;;;;;;;;;;;;;;;;;5045159;28;20014;-39
2023/06/02 18:54:33;;;;;;;;;;;;;;;;;;5059196;28;19912;-39
2023/06/02 18:56:59;;;;;;;;;;;;;;;;;;5062354;28;20415;-38
2023/06/02 18:59:26;;;;;;;;;;;;;;;;;;5063624;28;19923;-38
2023/06/02 19:01:52;;;;;;;;;;;;;;;;;;5059769;28;19955;-38
2023/06/02 19:04:18;;;;;;;;;;;;;;;;;;5052872;28;19967;-38
2023/06/02 19:06:44;;;;;;;;;;;;;;;;;;5063244;28;20377;-38
2023/06/02 19:09:10;;;;;;;;;;;;;;;;;;5063639;28;20458;-38
2023/06/02 19:11:36;;;;;;;;;;;;;;;;;;5040496;28;19952;-38
2023/06/02 19:14:03;;;;;;;;;;;;;;;;;;5059105;28;19920;-39
2023/06/02 19:16:30;;;;;;;;;;;;;;;;;;5035480;28;20284;-39
2023/06/02 19:18:57;;;;;;;;;;;;;;;;;;5055519;28;20541;-39
2023/06/02 19:21:23;;;;;;;;;;;;;;;;;;5058236;28;20007;-39
2023/06/02 19:23:51;;;;;;;;;;;;;;;;;;5033233;28;19991;-38
2023/06/02 19:26:20;;;;;;;;;;;;;;;;;;5051948;28;20310;-38
2023/06/02 19:28:46;;;;;;;;;;;;;;;;;;5060137;28;19920;-38
2023/06/02 19:31:12;;;;;;;;;;;;;;;;;;5037653;28;20299;-38
2023/06/02 19:33:38;;;;;;;;;;;;;;;;;;5055984;28;20336;-38
2023/06/02 19:36:05;;;;;;;;;;;;;;;;;;5041479;28;20053;-38
2023/06/02 19:38:31;;;;;;;;;;;;;;;;;;5062554;28;20236;-38
2023/06/02 19:40:58;;;;;;;;;;;;;;;;;;5064262;28;19916;-38
2023/06/02 19:43:24;;;;;;;;;;;;;;;;;;5040065;28;19917;-38
2023/06/02 19:45:50;;;;;;;;;;;;;;;;;;5053441;28;19917;-38
2023/06/02 19:48:16;;;;;;;;;;;;;;;;;;5062898;28;19934;-38
2023/06/02 19:50:43;;;;;;;;;;;;;;;;;;5061555;28;19928;-38
2023/06/02 19:53:09;;;;;;;;;;;;;;;;;;5062568;28;19916;-38
2023/06/02 19:55:36;;;;;;;;;;;;;;;;;;5035379;28;19939;-39
2023/06/02 19:58:02;;;;;;;;;;;;;;;;;;5056195;28;19931;-39
2023/06/02 20:00:28;;;;;;;;;;;;;;;;;;5039137;28;19917;-41
2023/06/02 20:02:54;;;;;;;;;;;;;;;;;;5065979;28;20419;-40
2023/06/02 20:05:20;;;;;;;;;;;;;;;;;;5063834;28;19926;-39
2023/06/02 20:07:46;;;;;;;;;;;;;;;;;;5058133;28;20294;-40
2023/06/02 20:10:12;;;;;;;;;;;;;;;;;;5067567;28;19916;-39
2023/06/02 20:12:38;;;;;;;;;;;;;;;;;;5067749;28;19927;-39
2023/06/02 20:15:04;;;;;;;;;;;;;;;;;;5064069;28;20424;-39
2023/06/02 20:17:30;;;;;;;;;;;;;;;;;;5066454;28;19932;-39
2023/06/02 20:19:56;;;;;;;;;;;;;;;;;;5067750;28;19912;-39
2023/06/02 20:22:23;;;;;;;;;;;;;;;;;;5049219;28;19909;-39
2023/06/02 20:24:49;;;;;;;;;;;;;;;;;;5063517;28;19955;-39
2023/06/02 20:27:14;;;;;;;;;;;;;;;;;;5060894;28;20337;-38
2023/06/02 20:29:40;;;;;;;;;;;;;;;;;;5047501;28;19909;-39
2023/06/02 20:32:06;;;;;;;;;;;;;;;;;;5062615;28;20419;-38
2023/06/02 20:34:33;;;;;;;;;;;;;;;;;;5056501;28;19982;-39
2023/06/02 20:37:00;;;;;;;;;;;;;;;;;;5067722;28;20019;-38
2023/06/02 20:39:26;;;;;;;;;;;;;;;;;;5067696;28;19999;-39
2023/06/02 20:41:52;;;;;;;;;;;;;;;;;;5064453;28;19913;-38
2023/06/02 20:44:18;;;;;;;;;;;;;;;;;;5053756;28;19923;-38
2023/06/02 20:46:45;;;;;;;;;;;;;;;;;;5059574;28;19912;-38
2023/06/02 20:49:11;;;;;;;;;;;;;;;;;;5065842;28;20419;-38
2023/06/02 20:51:37;;;;;;;;;;;;;;;;;;5048902;28;19944;-38
2023/06/02 20:54:02;;;;;;;;;;;;;;;;;;5050365;28;19923;-38
2023/06/02 20:56:29;;;;;;;;;;;;;;;;;;5056874;28;20074;-38
2023/06/02 20:58:55;;;;;;;;;;;;;;;;;;5066128;28;20007;-38
2023/06/02 21:01:21;;;;;;;;;;;;;;;;;;5056866;28;20350;-38
2023/06/02 21:03:47;;;;;;;;;;;;;;;;;;5059313;28;19958;-38
2023/06/02 21:06:14;;;;;;;;;;;;;;;;;;5036186;28;20195;-38
2023/06/02 21:08:40;;;;;;;;;;;;;;;;;;5047015;28;19923;-38
2023/06/02 21:11:06;;;;;;;;;;;;;;;;;;5046502;28;20303;-38
2023/06/02 21:13:32;;;;;;;;;;;;;;;;;;5046305;28;19917;-38
2023/06/02 21:15:58;;;;;;;;;;;;;;;;;;5062864;28;19916;-38
2023/06/02 21:18:24;;;;;;;;;;;;;;;;;;5048304;28;19920;-38
2023/06/02 21:20:51;;;;;;;;;;;;;;;;;;5066251;28;20295;-38
2023/06/02 21:23:18;;;;;;;;;;;;;;;;;;5066284;28;20003;-38
2023/06/02 21:25:44;;;;;;;;;;;;;;;;;;5064401;28;19954;-38
2023/06/02 21:28:11;;;;;;;;;;;;;;;;;;5065796;28;20052;-38
2023/06/02 21:30:40;;;;;;;;;;;;;;;;;;5065804;28;19908;-38
2023/06/02 21:33:05;;;;;;;;;;;;;;;;;;5066265;28;20260;-38
2023/06/02 21:35:32;;;;;;;;;;;;;;;;;;5065819;28;20178;-38
2023/06/02 21:37:58;;;;;;;;;;;;;;;;;;5066214;28;19920;-38
2023/06/02 21:40:24;;;;;;;;;;;;;;;;;;5065808;28;20402;-38
2023/06/02 21:42:50;;;;;;;;;;;;;;;;;;5066172;28;19912;-38
2023/06/02 21:45:17;;;;;;;;;;;;;;;;;;5064856;28;19916;-38
2023/06/02 21:47:44;;;;;;;;;;;;;;;;;;5061821;28;19920;-38
2023/06/02 21:50:11;;;;;;;;;;;;;;;;;;5045618;28;19916;-38
2023/06/02 21:52:37;;;;;;;;;;;;;;;;;;5045625;28;19909;-38
2023/06/02 21:55:04;;;;;;;;;;;;;;;;;;5029176;28;19921;-38
2023/06/02 21:57:30;;;;;;;;;;;;;;;;;;5046692;28;19924;-37
2023/06/02 21:59:56;;;;;;;;;;;;;;;;;;5042247;28;19965;-38
2023/06/02 22:02:23;;;;;;;;;;;;;;;;;;5065445;28;19918;-37
2023/06/02 22:04:49;;;;;;;;;;;;;;;;;;5065568;28;20284;-38
2023/06/02 22:07:15;;;;;;;;;;;;;;;;;;5047512;28;19914;-38
2023/06/02 22:09:41;;;;;;;;;;;;;;;;;;5047403;28;19963;-38
2023/06/02 22:12:07;;;;;;;;;;;;;;;;;;5046437;28;19913;-38
2023/06/02 22:14:33;;;;;;;;;;;;;;;;;;5045211;28;20364;-38
2023/06/02 22:16:59;;;;;;;;;;;;;;;;;;5045665;28;20023;-37
2023/06/02 22:19:25;;;;;;;;;;;;;;;;;;5045125;28;19992;-37
2023/06/02 22:21:51;;;;;;;;;;;;;;;;;;5045277;28;20371;-37
2023/06/02 22:24:17;;;;;;;;;;;;;;;;;;5050040;28;19909;-38
2023/06/02 22:26:43;;;;;;;;;;;;;;;;;;5064498;28;20364;-38
2023/06/02 22:29:09;;;;;;;;;;;;;;;;;;5065532;28;19912;-38
2023/06/02 22:31:35;;;;;;;;;;;;;;;;;;5063514;28;20474;-37
2023/06/02 22:34:01;;;;;;;;;;;;;;;;;;5065517;28;20307;-37
2023/06/02 22:36:26;;;;;;;;;;;;;;;;;;5046678;28;19905;-37
2023/06/02 22:38:53;;;;;;;;;;;;;;;;;;5065085;28;19923;-37
2023/06/02 22:41:21;;;;;;;;;;;;;;;;;;5064714;28;20442;-37
2023/06/02 22:43:47;;;;;;;;;;;;;;;;;;5044690;28;20001;-37
2023/06/02 22:46:13;;;;;;;;;;;;;;;;;;5044778;28;19920;-37
2023/06/02 22:48:39;;;;;;;;;;;;;;;;;;5044512;28;20295;-37
2023/06/02 22:51:06;;;;;;;;;;;;;;;;;;5060154;28;19909;-37
2023/06/02 22:53:32;;;;;;;;;;;;;;;;;;5045312;28;19909;-37
2023/06/02 22:56:00;;;;;;;;;;;;;;;;;;5045851;28;19920;-37
2023/06/02 22:58:26;;;;;;;;;;;;;;;;;;5044547;28;19958;-37
2023/06/02 23:00:52;;;;;;;;;;;;;;;;;;5044291;28;20407;-37
2023/06/02 23:03:18;;;;;;;;;;;;;;;;;;5059490;28;19920;-37
2023/06/02 23:05:44;;;;;;;;;;;;;;;;;;5045519;28;19916;-37
2023/06/02 23:08:10;;;;;;;;;;;;;;;;;;5044683;28;20011;-37
2023/06/02 23:10:37;;;;;;;;;;;;;;;;;;5052314;28;20295;-37
2023/06/02 23:13:04;;;;;;;;;;;;;;;;;;5064125;28;19916;-37
2023/06/02 23:15:31;;;;;;;;;;;;;;;;;;5046755;28;20363;-37
2023/06/02 23:17:57;;;;;;;;;;;;;;;;;;5064531;28;19920;-37
2023/06/02 23:20:23;;;;;;;;;;;;;;;;;;5045217;28;19917;-37
2023/06/02 23:22:48;;;;;;;;;;;;;;;;;;5046728;28;19912;-37
2023/06/02 23:25:14;;;;;;;;;;;;;;;;;;5065006;28;19913;-37
2023/06/02 23:27:41;;;;;;;;;;;;;;;;;;5046388;28;19908;-37
2023/06/02 23:30:07;;;;;;;;;;;;;;;;;;5066530;28;19920;-37
2023/06/02 23:32:33;;;;;;;;;;;;;;;;;;5068189;28;19913;-37
2023/06/02 23:34:59;;;;;;;;;;;;;;;;;;5069566;28;20461;-37
2023/06/02 23:37:27;;;;;;;;;;;;;;;;;;5064516;28;20003;-37
2023/06/02 23:39:53;;;;;;;;;;;;;;;;;;5048575;28;19920;-37
2023/06/02 23:42:20;;;;;;;;;;;;;;;;;;5048092;28;19913;-37
2023/06/02 23:44:46;;;;;;;;;;;;;;;;;;5030480;28;19916;-37
2023/06/02 23:47:16;;;;;;;;;;;;;;;;;;5061729;28;19913;-37
2023/06/02 23:49:43;;;;;;;;;;;;;;;;;;5068242;28;20436;-37
2023/06/02 23:52:10;;;;;;;;;;;;;;;;;;5066841;28;19920;-37
2023/06/02 23:54:36;;;;;;;;;;;;;;;;;;5067712;28;19912;-37
2023/06/02 23:57:03;;;;;;;;;;;;;;;;;;5066987;28;19923;-37
2023/06/02 23:59:29;;;;;;;;;;;;;;;;;;5048347;28;20011;-37
